This is the latest recevied weather packets stored in our database for station/object WA4TPR. If no packets are shown the sender has not sent any weather packets the latest 10 day(s).
| Time | Temp. | Humidity | Pressure | Rain* | Wind** | Luminosity | Snow |
|---|---|---|---|---|---|---|---|
| 1778088159 | 32.78° C | 49% | 1020.6 hPa | 0 mm | - | 852 W/m² | - |
| 1778087857 | 32.78° C | 50% | 1020.7 hPa | 0 mm | - | 840 W/m² | - |
| 1778087554 | 32.22° C | 51% | 1020.7 hPa | 0 mm | - | 742 W/m² | - |
| 1778087251 | 32.22° C | 50% | 1020.9 hPa | 0 mm | - | 818 W/m² | - |
| 1778086948 | 32.78° C | 52% | 1020.9 hPa | 0 mm | - | 810 W/m² | - |
| 1778086647 | 31.67° C | 53% | 1020.9 hPa | 0 mm | - | 847 W/m² | - |
| 1778086343 | 31.67° C | 53% | 1020.8 hPa | 0 mm | - | 830 W/m² | - |
| 1778086041 | 32.22° C | 52% | 1021 hPa | 0 mm | - | 737 W/m² | - |
| 1778085737 | 31.67° C | 54% | 1020.9 hPa | 0 mm | - | 684 W/m² | - |
| 1778085434 | 32.22° C | 55% | 1021 hPa | 0 mm | - | 815 W/m² | - |
| 1778085129 | 32.22° C | 56% | 1021 hPa | 0 mm | - | 767 W/m² | - |
| 1778084825 | 31.11° C | 58% | 1021.1 hPa | 0 mm | - | 790 W/m² | - |
| 1778084523 | 31.67° C | 56% | 1021.1 hPa | 0 mm | - | 817 W/m² | - |
| 1778084220 | 31.67° C | 56% | 1021.3 hPa | 0 mm | - | 803 W/m² | - |
| 1778083917 | 31.11° C | 60% | 1021.3 hPa | 0 mm | - | 786 W/m² | - |
| 1778083615 | 31.11° C | 60% | 1021.3 hPa | 0 mm | - | 770 W/m² | - |
| 1778083311 | 31.11° C | 59% | 1021.1 hPa | 0 mm | - | 768 W/m² | - |
| 1778083010 | 30.56° C | 62% | 1021.2 hPa | 0 mm | - | 757 W/m² | - |
| 1778082706 | 30.56° C | 64% | 1021.4 hPa | 0 mm | - | 743 W/m² | - |
| 1778081568 | 30° C | 67% | 1021.3 hPa | 0 mm | - | 710 W/m² | - |
| 1778081265 | 30° C | 68% | 1021.4 hPa | 0 mm | - | 684 W/m² | - |
| 1778080963 | 29.44° C | 70% | 1021.5 hPa | 0 mm | - | 689 W/m² | - |
| 1778080661 | 30° C | 68% | 1021.5 hPa | 0 mm | - | 651 W/m² | - |
| 1778080357 | 30° C | 70% | 1021.5 hPa | 0 mm | - | 628 W/m² | - |
| 1778080054 | 30° C | 71% | 1021.5 hPa | 0 mm | - | 651 W/m² | - |
* Rain latest hour (hover to see other rain measurements)
** Current wind speed in m/s (hover to see current wind gust speed)